createdAt,value
2023-03-17T00:01:09.707Z,4.40
2023-03-17T00:03:38.303Z,5.00
2023-03-17T00:06:05.480Z,4.47
2023-03-17T00:08:33.631Z,3.20
2023-03-17T00:11:00.436Z,2.95
2023-03-17T00:13:27.289Z,3.08
2023-03-17T00:16:01.096Z,2.50
2023-03-17T00:18:27.852Z,4.50
2023-03-17T00:20:54.395Z,3.33
2023-03-17T00:23:22.558Z,2.42
2023-03-17T00:25:49.754Z,3.08
2023-03-17T00:28:22.113Z,3.58
2023-03-17T00:30:49.953Z,3.45
2023-03-17T00:33:16.941Z,6.22
2023-03-17T00:35:45.434Z,4.32
2023-03-17T00:38:16.870Z,5.00
2023-03-17T00:43:11.101Z,4.47
2023-03-17T00:45:37.705Z,3.08
2023-03-17T00:48:13.484Z,5.07
2023-03-17T00:50:42.617Z,3.30
2023-03-17T00:53:12.447Z,4.13
2023-03-17T00:55:39.001Z,2.30
2023-03-17T00:58:18.379Z,5.47
2023-03-17T01:00:45.564Z,1.90
2023-03-17T01:03:12.965Z,4.07
2023-03-17T01:05:40.153Z,5.45
2023-03-17T01:08:09.201Z,4.18
2023-03-17T01:10:36.425Z,2.85
2023-03-17T01:13:04.326Z,3.38
2023-03-17T01:15:31.636Z,1.65
2023-03-17T01:18:00.101Z,3.42
2023-03-17T01:20:31.060Z,3.45
2023-03-17T01:22:57.863Z,1.50
2023-03-17T01:25:25.232Z,2.45
2023-03-17T01:27:51.757Z,3.47
2023-03-17T01:30:32.168Z,3.45
2023-03-17T01:32:59.534Z,3.65
2023-03-17T01:35:29.312Z,3.20
2023-03-17T01:37:57.143Z,4.32
2023-03-17T01:40:33.254Z,2.42
2023-03-17T01:43:08.132Z,1.63
2023-03-17T01:46:12.386Z,3.58
2023-03-17T01:48:55.385Z,2.45
2023-03-17T01:51:33.750Z,4.60
2023-03-17T01:54:02.429Z,2.08
2023-03-17T01:56:30.207Z,3.53
2023-03-17T01:58:59.669Z,2.25
2023-03-17T02:01:30.621Z,5.95
2023-03-17T02:03:57.215Z,3.08
2023-03-17T02:06:24.746Z,2.30
2023-03-17T02:08:52.108Z,3.65
2023-03-17T02:11:18.991Z,3.78
2023-03-17T02:13:45.635Z,3.00
2023-03-17T02:16:16.093Z,2.42
2023-03-17T02:18:43.343Z,3.25
2023-03-17T02:21:46.554Z,3.55
2023-03-17T02:24:21.767Z,2.75
2023-03-17T02:26:49.640Z,4.07
2023-03-17T02:29:16.789Z,5.28
2023-03-17T02:31:44.713Z,5.07
2023-03-17T02:34:11.338Z,2.85
2023-03-17T02:36:37.867Z,3.35
2023-03-17T02:39:04.882Z,3.05
2023-03-17T02:41:31.399Z,3.50
2023-03-17T02:43:59.159Z,2.40
2023-03-17T02:46:26.244Z,3.28
2023-03-17T02:48:53.234Z,2.20
2023-03-17T02:51:19.815Z,3.55
2023-03-17T02:53:46.392Z,3.63
2023-03-17T02:56:12.897Z,3.03
2023-03-17T02:58:39.388Z,3.47
2023-03-17T03:01:06.053Z,3.22
2023-03-17T03:03:32.937Z,3.97
2023-03-17T03:06:01.543Z,4.00
2023-03-17T03:08:29.288Z,3.15
2023-03-17T03:10:55.749Z,3.00
2023-03-17T03:13:22.820Z,4.10
2023-03-17T03:15:49.334Z,2.95
2023-03-17T03:18:15.844Z,2.03
2023-03-17T03:20:44.054Z,3.65
2023-03-17T03:23:11.528Z,2.53
2023-03-17T03:25:38.591Z,3.15
2023-03-17T03:28:08.069Z,3.25
2023-03-17T03:30:35.824Z,4.22
2023-03-17T03:33:02.393Z,4.40
2023-03-17T03:35:29.697Z,3.30
2023-03-17T03:37:57.511Z,3.92
2023-03-17T03:40:24.750Z,4.05
2023-03-17T03:42:51.218Z,4.72
2023-03-17T03:45:17.800Z,5.13
2023-03-17T03:47:44.326Z,3.50
2023-03-17T03:50:11.376Z,4.20
2023-03-17T03:52:37.897Z,3.25
2023-03-17T03:55:04.778Z,3.30
2023-03-17T03:57:31.272Z,3.70
2023-03-17T03:59:57.750Z,8.05
2023-03-17T04:02:24.334Z,2.88
2023-03-17T04:04:51.054Z,2.92
2023-03-17T04:07:17.628Z,2.50
2023-03-17T04:09:44.093Z,1.88
2023-03-17T04:12:11.137Z,3.65
2023-03-17T04:14:37.650Z,2.35
2023-03-17T04:17:05.162Z,1.80
2023-03-17T04:19:32.281Z,2.97
2023-03-17T04:21:58.730Z,2.65
2023-03-17T04:24:25.269Z,4.57
2023-03-17T04:26:51.979Z,3.33
2023-03-17T04:29:19.152Z,2.00
2023-03-17T04:31:45.830Z,4.25
2023-03-17T04:34:15.691Z,6.97
2023-03-17T04:36:43.693Z,1.95
2023-03-17T04:39:10.552Z,2.75
2023-03-17T04:41:37.299Z,2.80
2023-03-17T04:44:04.238Z,3.65
2023-03-17T04:46:31.168Z,3.42
2023-03-17T04:48:58.010Z,3.97
2023-03-17T04:51:24.523Z,1.85
2023-03-17T04:53:51.117Z,2.90
2023-03-17T04:56:17.613Z,4.82
2023-03-17T04:58:44.310Z,4.13
2023-03-17T05:01:10.885Z,2.83
2023-03-17T05:03:37.352Z,2.65
2023-03-17T05:06:04.814Z,3.63
2023-03-17T05:08:31.506Z,4.80
2023-03-17T05:10:58.564Z,5.75
2023-03-17T05:13:26.291Z,2.90
2023-03-17T05:15:54.774Z,4.20
2023-03-17T05:18:23.290Z,3.53
2023-03-17T05:20:49.879Z,3.50
2023-03-17T05:23:16.492Z,2.88
2023-03-17T05:25:43.037Z,3.83
2023-03-17T05:28:10.155Z,2.50
2023-03-17T05:30:36.724Z,3.80
2023-03-17T05:33:03.826Z,2.47
2023-03-17T05:35:30.649Z,3.60
2023-03-17T05:37:57.167Z,2.95
2023-03-17T05:40:26.579Z,6.30
2023-03-17T05:42:53.098Z,5.65
2023-03-17T05:45:19.754Z,2.65
2023-03-17T05:47:46.425Z,2.95
2023-03-17T05:50:12.901Z,3.47
2023-03-17T05:52:39.414Z,1.70
2023-03-17T05:55:07.176Z,5.38
2023-03-17T05:57:33.931Z,4.72
2023-03-17T06:00:00.407Z,3.53
2023-03-17T06:02:27.151Z,3.00
2023-03-17T06:04:53.676Z,3.30
2023-03-17T06:07:20.532Z,3.85
2023-03-17T06:09:47.531Z,3.70
2023-03-17T06:12:13.990Z,7.10
2023-03-17T06:14:40.497Z,4.50
2023-03-17T06:17:07.391Z,3.30
2023-03-17T06:19:33.929Z,2.78
2023-03-17T06:22:00.423Z,4.63
2023-03-17T06:24:26.999Z,5.70
2023-03-17T06:26:53.518Z,2.53
2023-03-17T06:29:19.948Z,2.97
2023-03-17T06:31:50.784Z,2.17
2023-03-17T06:34:18.611Z,2.35
2023-03-17T06:36:45.415Z,3.60
2023-03-17T06:39:12.865Z,1.88
2023-03-17T06:41:39.565Z,2.30
2023-03-17T06:44:07.316Z,2.08
2023-03-17T06:46:34.397Z,1.75
2023-03-17T06:49:01.347Z,8.80
2023-03-17T06:51:27.862Z,14.40
2023-03-17T06:53:54.356Z,12.90
2023-03-17T06:56:29.796Z,8.10
2023-03-17T06:58:57.001Z,6.57
2023-03-17T07:01:23.509Z,3.63
2023-03-17T07:03:50.181Z,5.45
2023-03-17T07:06:16.671Z,2.25
2023-03-17T07:08:43.250Z,3.42
2023-03-17T07:11:09.836Z,3.58
2023-03-17T07:13:38.711Z,3.88
2023-03-17T07:16:06.965Z,1.55
2023-03-17T07:18:33.773Z,2.85
2023-03-17T07:21:01.845Z,2.63
2023-03-17T07:23:29.554Z,3.92
2023-03-17T07:25:57.231Z,3.17
2023-03-17T07:28:24.233Z,3.42
2023-03-17T07:30:51.356Z,1.98
2023-03-17T07:33:21.193Z,7.82
2023-03-17T07:35:49.452Z,1.30
2023-03-17T07:38:17.152Z,1.85
2023-03-17T07:40:48.927Z,4.65
2023-03-17T07:43:16.745Z,1.85
2023-03-17T07:45:44.434Z,1.60
2023-03-17T07:48:10.977Z,1.42
2023-03-17T07:50:37.543Z,3.28
2023-03-17T07:53:04.612Z,1.63
2023-03-17T07:55:32.222Z,2.75
2023-03-17T07:57:59.540Z,1.83
2023-03-17T08:00:27.080Z,1.42
2023-03-17T08:03:08.910Z,3.20
2023-03-17T08:05:36.326Z,2.50
2023-03-17T08:08:02.803Z,2.20
2023-03-17T08:10:29.673Z,2.53
2023-03-17T08:12:56.529Z,1.55
2023-03-17T08:15:23.058Z,2.53
2023-03-17T08:17:49.642Z,1.90
2023-03-17T08:20:16.458Z,2.65
2023-03-17T08:22:44.000Z,1.55
2023-03-17T08:25:11.706Z,3.13
2023-03-17T08:27:38.635Z,1.50
2023-03-17T08:30:05.793Z,3.05
2023-03-17T08:32:32.376Z,2.40
2023-03-17T08:34:58.929Z,2.08
2023-03-17T08:37:25.987Z,2.33
2023-03-17T08:39:52.461Z,1.63
2023-03-17T08:42:18.918Z,2.08
2023-03-17T08:44:45.774Z,1.95
2023-03-17T08:47:12.299Z,1.58
2023-03-17T08:49:38.862Z,4.90
2023-03-17T08:52:05.368Z,2.53
2023-03-17T08:54:32.191Z,4.38
2023-03-17T08:56:58.879Z,1.70
2023-03-17T08:59:25.359Z,3.03
2023-03-17T09:01:51.876Z,2.83
2023-03-17T09:04:18.456Z,2.28
2023-03-17T09:07:01.864Z,4.18
2023-03-17T09:11:57.337Z,1.95
2023-03-17T09:14:24.801Z,2.63
2023-03-17T09:16:51.595Z,4.03
2023-03-17T09:19:18.083Z,3.20
2023-03-17T09:21:44.775Z,2.10
2023-03-17T09:24:11.312Z,3.83
2023-03-17T09:26:37.838Z,2.22
2023-03-17T09:29:05.236Z,1.88
2023-03-17T09:31:32.887Z,2.13
2023-03-17T09:33:59.981Z,2.40
2023-03-17T09:36:26.490Z,4.53
2023-03-17T09:38:53.076Z,1.52
2023-03-17T09:41:42.425Z,2.45
2023-03-17T09:44:23.730Z,3.17
2023-03-17T09:47:25.756Z,2.22
2023-03-17T09:49:56.300Z,3.40
2023-03-17T09:52:29.559Z,2.00
2023-03-17T09:54:56.860Z,1.75
2023-03-17T09:57:33.093Z,3.08
2023-03-17T10:00:29.207Z,2.53
2023-03-17T10:02:57.874Z,2.25
2023-03-17T10:05:27.730Z,3.15
2023-03-17T10:08:31.173Z,1.35
2023-03-17T10:11:14.798Z,1.63
2023-03-17T10:13:50.631Z,3.58
2023-03-17T10:16:21.895Z,4.47
2023-03-17T10:19:04.521Z,3.28
2023-03-17T10:21:37.526Z,3.72
2023-03-17T10:24:04.425Z,1.80
2023-03-17T10:26:42.676Z,2.40
2023-03-17T10:29:15.207Z,2.97
2023-03-17T10:31:41.942Z,3.28
2023-03-17T10:34:21.679Z,3.38
2023-03-17T10:36:51.485Z,3.47
2023-03-17T10:39:20.623Z,2.17
2023-03-17T10:41:59.020Z,3.72
2023-03-17T10:44:40.814Z,5.38
2023-03-17T10:47:35.683Z,3.08
2023-03-17T10:50:17.048Z,3.42
2023-03-17T10:52:47.371Z,2.35
2023-03-17T10:55:20.483Z,3.42
2023-03-17T10:58:01.954Z,2.28
2023-03-17T11:00:35.344Z,2.70
2023-03-17T11:03:24.562Z,1.65
2023-03-17T11:05:55.745Z,2.65
2023-03-17T11:08:23.170Z,5.43
2023-03-17T11:10:56.560Z,3.78
2023-03-17T11:13:30.106Z,2.30
2023-03-17T11:16:23.744Z,2.67
2023-03-17T11:18:53.497Z,1.95
2023-03-17T11:21:26.972Z,1.42
2023-03-17T11:23:58.482Z,2.47
2023-03-17T11:26:38.864Z,1.58
2023-03-17T11:29:25.944Z,3.53
2023-03-17T11:32:26.702Z,3.72
2023-03-17T11:34:59.055Z,1.42
2023-03-17T11:37:39.947Z,3.13
2023-03-17T11:40:35.085Z,3.17
2023-03-17T11:43:21.955Z,1.40
2023-03-17T11:45:57.676Z,1.95
2023-03-17T11:48:32.887Z,2.03
2023-03-17T11:51:02.195Z,3.35
2023-03-17T11:53:36.529Z,2.50
2023-03-17T11:56:09.075Z,2.83
2023-03-17T11:58:39.392Z,2.42
2023-03-17T12:01:10.746Z,2.20
2023-03-17T12:03:45.931Z,1.40
2023-03-17T12:06:20.848Z,1.63
2023-03-17T12:08:52.542Z,1.48
2023-03-17T12:11:23.849Z,2.63
2023-03-17T12:13:58.595Z,2.22
2023-03-17T12:16:44.193Z,2.88
2023-03-17T12:19:33.807Z,2.22
2023-03-17T12:22:21.401Z,1.48
2023-03-17T12:24:52.734Z,2.22
2023-03-17T12:27:30.252Z,1.90
2023-03-17T12:30:15.416Z,2.38
2023-03-17T12:32:48.461Z,1.50
2023-03-17T12:35:14.861Z,2.90
2023-03-17T12:37:41.887Z,2.50
2023-03-17T12:40:14.461Z,5.55
2023-03-17T12:43:16.948Z,1.65
2023-03-17T12:46:11.155Z,1.90
2023-03-17T12:49:04.952Z,2.80
2023-03-17T12:51:56.275Z,4.45
2023-03-17T12:54:34.736Z,3.50
2023-03-17T12:57:20.852Z,2.58
2023-03-17T12:59:49.500Z,3.08
2023-03-17T13:02:28.332Z,2.40
2023-03-17T13:05:06.040Z,2.78
2023-03-17T13:07:51.501Z,1.75
2023-03-17T13:10:37.463Z,6.80
2023-03-17T13:13:09.067Z,2.70
2023-03-17T13:15:36.100Z,2.97
2023-03-17T13:18:14.628Z,6.22
2023-03-17T13:21:05.948Z,1.90
2023-03-17T13:23:54.997Z,2.15
2023-03-17T13:26:23.590Z,1.60
2023-03-17T13:28:50.972Z,2.63
2023-03-17T13:31:36.912Z,4.38
2023-03-17T13:34:12.953Z,3.75
2023-03-17T13:36:52.399Z,4.28
2023-03-17T13:39:45.994Z,2.03
2023-03-17T13:42:29.798Z,1.73
2023-03-17T13:47:35.440Z,2.92
2023-03-17T13:50:14.287Z,2.00
2023-03-17T13:52:55.518Z,2.08
2023-03-17T13:55:21.932Z,3.58
2023-03-17T13:58:15.468Z,5.05
2023-03-17T14:00:44.787Z,3.30
2023-03-17T14:03:23.355Z,4.40
2023-03-17T14:05:51.373Z,3.08
2023-03-17T14:08:23.594Z,2.55
2023-03-17T14:11:00.429Z,3.53
2023-03-17T14:13:30.019Z,2.78
2023-03-17T14:16:06.372Z,3.50
2023-03-17T14:18:38.316Z,3.13
2023-03-17T14:21:10.532Z,1.50
2023-03-17T14:23:38.018Z,2.47
2023-03-17T14:26:05.097Z,2.60
2023-03-17T14:28:34.129Z,3.88
2023-03-17T14:31:03.037Z,2.05
2023-03-17T14:33:31.304Z,4.20
2023-03-17T14:36:00.728Z,4.40
2023-03-17T14:38:34.116Z,2.00
2023-03-17T14:41:16.708Z,2.38
2023-03-17T14:43:44.056Z,2.25
2023-03-17T14:46:22.166Z,4.00
2023-03-17T14:48:51.032Z,4.05
2023-03-17T14:51:24.392Z,2.83
2023-03-17T14:53:52.519Z,5.32
2023-03-17T14:56:24.154Z,5.20
2023-03-17T14:58:52.008Z,1.48
2023-03-17T15:01:24.077Z,3.00
2023-03-17T15:03:59.572Z,3.83
2023-03-17T15:06:30.637Z,4.10
2023-03-17T15:08:58.249Z,3.60
2023-03-17T15:11:25.698Z,3.35
2023-03-17T15:14:04.942Z,3.90
2023-03-17T15:16:34.302Z,6.15
2023-03-17T15:19:13.546Z,3.08
2023-03-17T15:21:42.205Z,7.97
2023-03-17T15:24:34.653Z,4.38
2023-03-17T15:27:03.763Z,6.25
2023-03-17T15:29:30.796Z,3.90
2023-03-17T15:32:03.565Z,2.28
2023-03-17T15:34:30.692Z,4.47
2023-03-17T15:36:57.994Z,3.22
2023-03-17T15:39:24.590Z,3.58
2023-03-17T15:41:51.232Z,3.67
2023-03-17T15:44:17.757Z,6.15
2023-03-17T15:46:44.258Z,4.53
2023-03-17T15:49:11.272Z,4.28
2023-03-17T15:51:38.041Z,4.20
2023-03-17T15:54:04.720Z,7.57
2023-03-17T15:56:31.230Z,6.40
2023-03-17T15:58:57.740Z,6.25
2023-03-17T16:01:27.314Z,5.07
2023-03-17T16:03:54.353Z,10.00
2023-03-17T16:06:22.435Z,7.22
2023-03-17T16:08:49.672Z,9.25
2023-03-17T16:11:19.182Z,6.43
2023-03-17T16:13:46.932Z,5.20
2023-03-17T16:16:21.523Z,4.28
2023-03-17T16:18:50.264Z,8.10
2023-03-17T16:21:17.259Z,6.13
2023-03-17T16:23:43.767Z,6.05
2023-03-17T16:26:16.154Z,6.35
2023-03-17T16:28:45.191Z,8.23
2023-03-17T16:31:21.153Z,5.07
2023-03-17T16:33:48.536Z,6.60
2023-03-17T16:36:17.636Z,7.72
2023-03-17T16:38:44.835Z,5.68
2023-03-17T16:41:22.661Z,9.45
2023-03-17T16:43:52.638Z,5.70
2023-03-17T16:46:20.974Z,4.95
2023-03-17T16:48:48.491Z,4.45
2023-03-17T16:51:15.325Z,4.00
2023-03-17T16:53:41.792Z,4.78
2023-03-17T16:56:19.543Z,7.93
2023-03-17T16:58:46.641Z,6.97
2023-03-17T17:01:25.241Z,5.88
2023-03-17T17:03:51.800Z,4.93
2023-03-17T17:06:19.832Z,3.50
2023-03-17T17:08:47.475Z,5.95
2023-03-17T17:11:14.991Z,7.75
2023-03-17T17:13:42.744Z,16.73
2023-03-17T17:16:27.010Z,23.65
2023-03-17T17:18:53.877Z,65.28
2023-03-17T17:21:20.495Z,108.68
2023-03-17T17:23:47.073Z,44.00
2023-03-17T17:26:13.634Z,19.83
2023-03-17T17:28:40.388Z,19.80
2023-03-17T17:31:08.547Z,19.00
2023-03-17T17:33:35.968Z,6.07
2023-03-17T17:36:04.585Z,7.93
2023-03-17T17:38:31.415Z,8.35
2023-03-17T17:40:59.816Z,12.15
2023-03-17T17:43:26.505Z,14.77
2023-03-17T17:45:53.619Z,14.70
2023-03-17T17:48:23.726Z,13.77
2023-03-17T17:50:51.905Z,8.68
2023-03-17T17:53:18.534Z,6.50
2023-03-17T17:55:46.640Z,7.28
2023-03-17T17:58:14.902Z,4.38
2023-03-17T18:00:41.485Z,3.47
2023-03-17T18:03:08.476Z,3.72
2023-03-17T18:05:36.174Z,3.35
2023-03-17T18:08:02.775Z,4.90
2023-03-17T18:10:30.392Z,3.95
2023-03-17T18:12:57.383Z,3.53
2023-03-17T18:15:25.609Z,5.55
2023-03-17T18:17:52.254Z,5.07
2023-03-17T18:20:21.469Z,4.55
2023-03-17T18:22:49.685Z,4.45
2023-03-17T18:25:17.261Z,8.30
2023-03-17T18:27:44.058Z,5.10
2023-03-17T18:30:14.173Z,3.53
2023-03-17T18:32:42.830Z,10.57
2023-03-17T18:35:12.162Z,3.63
2023-03-17T18:37:38.728Z,5.15
2023-03-17T18:40:14.343Z,8.05
2023-03-17T18:42:44.637Z,4.03
2023-03-17T18:45:11.681Z,3.95
2023-03-17T18:47:39.026Z,6.05
2023-03-17T18:50:07.057Z,5.32
2023-03-17T18:52:35.102Z,5.03
2023-03-17T18:55:01.902Z,4.60
2023-03-17T18:57:28.417Z,48.42
2023-03-17T18:59:55.486Z,5.50
2023-03-17T19:02:22.193Z,4.15
2023-03-17T19:04:48.637Z,7.15
2023-03-17T19:07:15.531Z,7.60
2023-03-17T19:09:42.305Z,5.03
2023-03-17T19:12:09.808Z,4.07
2023-03-17T19:14:37.478Z,9.82
2023-03-17T19:17:06.285Z,3.28
2023-03-17T19:19:33.296Z,3.63
2023-03-17T19:22:00.381Z,3.80
2023-03-17T19:24:27.380Z,4.20
2023-03-17T19:26:53.874Z,5.40
2023-03-17T19:29:20.467Z,5.45
2023-03-17T19:31:48.555Z,5.88
2023-03-17T19:34:15.495Z,10.45
2023-03-17T19:36:43.598Z,5.78
2023-03-17T19:39:13.686Z,9.55
2023-03-17T19:41:40.591Z,10.52
2023-03-17T19:44:07.280Z,27.35
2023-03-17T19:46:35.521Z,7.25
2023-03-17T19:49:02.981Z,4.38
2023-03-17T19:51:29.579Z,6.22
2023-03-17T19:53:56.212Z,5.95
2023-03-17T19:56:23.107Z,8.27
2023-03-17T19:58:49.688Z,6.22
2023-03-17T20:01:17.168Z,38.47
2023-03-17T20:03:43.758Z,7.40
2023-03-17T20:06:11.880Z,7.32
2023-03-17T20:08:39.686Z,7.05
2023-03-17T20:11:06.652Z,5.22
2023-03-17T20:13:34.799Z,5.68
2023-03-17T20:16:02.090Z,6.45
2023-03-17T20:18:29.072Z,5.15
2023-03-17T20:20:57.272Z,6.55
2023-03-17T20:23:25.042Z,5.18
2023-03-17T20:25:52.533Z,8.38
2023-03-17T20:28:21.504Z,6.22
2023-03-17T20:30:49.323Z,5.35
2023-03-17T20:33:16.820Z,6.15
2023-03-17T20:35:46.711Z,4.07
2023-03-17T20:38:13.497Z,10.05
2023-03-17T20:40:41.904Z,7.88
2023-03-17T20:43:08.557Z,4.88
2023-03-17T20:45:35.062Z,8.10
2023-03-17T20:48:02.017Z,7.18
2023-03-17T20:50:31.177Z,4.75
2023-03-17T20:52:57.852Z,4.13
2023-03-17T20:55:25.607Z,6.80
2023-03-17T20:57:52.725Z,9.98
2023-03-17T21:00:21.223Z,5.47
2023-03-17T21:02:50.178Z,4.10
2023-03-17T21:05:23.166Z,7.20
2023-03-17T21:07:49.697Z,5.50
2023-03-17T21:10:16.775Z,5.80
2023-03-17T21:12:43.927Z,4.90
2023-03-17T21:15:12.801Z,5.60
2023-03-17T21:17:39.742Z,5.03
2023-03-17T21:20:09.512Z,5.38
2023-03-17T21:22:36.871Z,6.30
2023-03-17T21:25:04.475Z,5.30
2023-03-17T21:27:31.303Z,6.50
2023-03-17T21:29:58.019Z,6.13
2023-03-17T21:32:24.673Z,5.80
2023-03-17T21:34:51.695Z,5.70
2023-03-17T21:37:18.774Z,6.22
2023-03-17T21:39:45.857Z,6.55
2023-03-17T21:42:12.481Z,6.22
2023-03-17T21:44:39.520Z,8.55
2023-03-17T21:47:06.016Z,8.57
2023-03-17T21:49:32.954Z,10.90
2023-03-17T21:51:59.749Z,8.48
2023-03-17T21:54:26.258Z,5.70
2023-03-17T21:56:52.815Z,7.00
2023-03-17T21:59:21.021Z,8.43
2023-03-17T22:01:52.070Z,11.80
2023-03-17T22:04:18.715Z,10.40
2023-03-17T22:06:45.456Z,8.77
2023-03-17T22:09:13.015Z,8.40
2023-03-17T22:11:39.530Z,7.60
2023-03-17T22:14:06.452Z,6.95
2023-03-17T22:16:33.031Z,5.90
2023-03-17T22:18:59.536Z,5.82
2023-03-17T22:21:26.080Z,5.07
2023-03-17T22:23:52.605Z,8.68
2023-03-17T22:26:20.829Z,7.97
2023-03-17T22:28:48.650Z,7.88
2023-03-17T22:31:23.883Z,5.03
2023-03-17T22:33:52.588Z,7.18
2023-03-17T22:36:19.347Z,5.40
2023-03-17T22:38:46.797Z,6.15
2023-03-17T22:41:16.629Z,5.15
2023-03-17T22:43:43.531Z,7.50
2023-03-17T22:46:10.474Z,5.28
2023-03-17T22:48:37.121Z,5.63
2023-03-17T22:51:05.681Z,7.32
2023-03-17T22:53:32.946Z,7.43
2023-03-17T22:55:59.744Z,7.28
2023-03-17T22:58:26.479Z,8.27
2023-03-17T23:00:53.759Z,5.88
2023-03-17T23:03:21.097Z,8.52
2023-03-17T23:05:49.646Z,7.07
2023-03-17T23:08:17.026Z,5.18
2023-03-17T23:10:43.585Z,6.20
2023-03-17T23:13:10.149Z,4.63
2023-03-17T23:15:36.842Z,6.97
2023-03-17T23:18:03.786Z,7.95
2023-03-17T23:20:30.870Z,14.10
2023-03-17T23:22:57.815Z,5.75
2023-03-17T23:25:24.771Z,7.70
2023-03-17T23:27:51.603Z,6.72
2023-03-17T23:30:18.687Z,7.28
2023-03-17T23:32:46.949Z,6.35
2023-03-17T23:35:14.120Z,4.80
2023-03-17T23:37:41.096Z,5.50
2023-03-17T23:40:09.345Z,7.60
2023-03-17T23:42:36.621Z,3.95
2023-03-17T23:45:03.944Z,6.15
2023-03-17T23:47:30.566Z,4.47
2023-03-17T23:49:57.107Z,7.30
2023-03-17T23:52:23.706Z,6.22
2023-03-17T23:54:50.288Z,5.03
2023-03-17T23:57:17.223Z,5.28
2023-03-17T23:59:43.861Z,6.63
